sensor_id;sensor_type;location;lat;lon;timestamp;P1;durP1;ratioP1;P2;durP2;ratioP2
18568;SDS011;14780;48.316;-1.050;2023-12-22T00:00:05;9.55;;;3.38;;
18568;SDS011;14780;48.316;-1.050;2023-12-22T00:02:51;11.50;;;3.50;;
18568;SDS011;14780;48.316;-1.050;2023-12-22T00:05:36;10.85;;;3.58;;
18568;SDS011;14780;48.316;-1.050;2023-12-22T00:08:20;7.40;;;3.10;;
18568;SDS011;14780;48.316;-1.050;2023-12-22T00:11:07;9.35;;;3.10;;
18568;SDS011;14780;48.316;-1.050;2023-12-22T00:13:52;12.52;;;3.13;;
18568;SDS011;14780;48.316;-1.050;2023-12-22T00:16:37;8.85;;;3.50;;
18568;SDS011;14780;48.316;-1.050;2023-12-22T00:19:22;7.28;;;3.40;;
18568;SDS011;14780;48.316;-1.050;2023-12-22T00:22:06;7.93;;;3.25;;
18568;SDS011;14780;48.316;-1.050;2023-12-22T00:24:51;10.07;;;3.10;;
18568;SDS011;14780;48.316;-1.050;2023-12-22T00:27:36;8.52;;;3.13;;
18568;SDS011;14780;48.316;-1.050;2023-12-22T00:30:21;9.25;;;3.15;;
18568;SDS011;14780;48.316;-1.050;2023-12-22T00:33:07;8.07;;;3.33;;
18568;SDS011;14780;48.316;-1.050;2023-12-22T00:35:52;8.38;;;3.38;;
18568;SDS011;14780;48.316;-1.050;2023-12-22T00:38:37;8.45;;;3.10;;
18568;SDS011;14780;48.316;-1.050;2023-12-22T00:41:21;8.85;;;3.53;;
18568;SDS011;14780;48.316;-1.050;2023-12-22T00:44:06;6.95;;;3.00;;
18568;SDS011;14780;48.316;-1.050;2023-12-22T00:46:51;7.00;;;3.00;;
18568;SDS011;14780;48.316;-1.050;2023-12-22T00:49:36;7.78;;;2.97;;
18568;SDS011;14780;48.316;-1.050;2023-12-22T00:52:21;7.85;;;2.90;;
18568;SDS011;14780;48.316;-1.050;2023-12-22T00:55:07;7.32;;;3.17;;
18568;SDS011;14780;48.316;-1.050;2023-12-22T00:57:52;6.97;;;2.92;;
18568;SDS011;14780;48.316;-1.050;2023-12-22T01:00:36;6.57;;;3.07;;
18568;SDS011;14780;48.316;-1.050;2023-12-22T01:03:22;7.28;;;2.90;;
18568;SDS011;14780;48.316;-1.050;2023-12-22T01:06:06;8.65;;;3.22;;
18568;SDS011;14780;48.316;-1.050;2023-12-22T01:08:51;9.75;;;3.13;;
18568;SDS011;14780;48.316;-1.050;2023-12-22T01:11:35;8.32;;;3.00;;
18568;SDS011;14780;48.316;-1.050;2023-12-22T01:14:20;5.93;;;2.83;;
18568;SDS011;14780;48.316;-1.050;2023-12-22T01:17:05;7.50;;;3.00;;
18568;SDS011;14780;48.316;-1.050;2023-12-22T01:19:49;6.35;;;2.90;;
18568;SDS011;14780;48.316;-1.050;2023-12-22T01:22:34;5.28;;;2.90;;
18568;SDS011;14780;48.316;-1.050;2023-12-22T01:25:22;7.85;;;3.00;;
18568;SDS011;14780;48.316;-1.050;2023-12-22T01:28:07;7.77;;;2.97;;
18568;SDS011;14780;48.316;-1.050;2023-12-22T01:30:52;6.57;;;3.00;;
18568;SDS011;14780;48.316;-1.050;2023-12-22T01:33:37;5.10;;;2.80;;
18568;SDS011;14780;48.316;-1.050;2023-12-22T01:36:21;5.90;;;2.90;;
18568;SDS011;14780;48.316;-1.050;2023-12-22T01:39:06;8.75;;;3.17;;
18568;SDS011;14780;48.316;-1.050;2023-12-22T01:41:50;5.22;;;2.70;;
18568;SDS011;14780;48.316;-1.050;2023-12-22T01:44:35;7.82;;;2.90;;
18568;SDS011;14780;48.316;-1.050;2023-12-22T01:47:19;6.50;;;2.90;;
18568;SDS011;14780;48.316;-1.050;2023-12-22T01:50:05;6.22;;;2.80;;
18568;SDS011;14780;48.316;-1.050;2023-12-22T01:52:50;6.45;;;2.72;;
18568;SDS011;14780;48.316;-1.050;2023-12-22T01:55:35;9.75;;;3.20;;
18568;SDS011;14780;48.316;-1.050;2023-12-22T01:58:19;5.97;;;2.90;;
18568;SDS011;14780;48.316;-1.050;2023-12-22T02:01:06;6.82;;;2.90;;
18568;SDS011;14780;48.316;-1.050;2023-12-22T02:03:52;6.90;;;2.90;;
18568;SDS011;14780;48.316;-1.050;2023-12-22T02:06:37;5.65;;;2.90;;
18568;SDS011;14780;48.316;-1.050;2023-12-22T02:09:21;6.47;;;2.80;;
18568;SDS011;14780;48.316;-1.050;2023-12-22T02:12:06;6.43;;;2.72;;
18568;SDS011;14780;48.316;-1.050;2023-12-22T02:14:51;5.65;;;2.80;;
18568;SDS011;14780;48.316;-1.050;2023-12-22T02:17:41;5.97;;;2.75;;
18568;SDS011;14780;48.316;-1.050;2023-12-22T02:20:49;5.57;;;2.63;;
18568;SDS011;14780;48.316;-1.050;2023-12-22T02:23:35;5.18;;;2.65;;
18568;SDS011;14780;48.316;-1.050;2023-12-22T02:26:32;4.45;;;2.58;;
18568;SDS011;14780;48.316;-1.050;2023-12-22T02:29:26;6.50;;;2.42;;
18568;SDS011;14780;48.316;-1.050;2023-12-22T02:32:18;6.20;;;2.65;;
18568;SDS011;14780;48.316;-1.050;2023-12-22T02:35:16;6.75;;;2.53;;
18568;SDS011;14780;48.316;-1.050;2023-12-22T02:38:07;5.40;;;2.60;;
18568;SDS011;14780;48.316;-1.050;2023-12-22T02:40:54;7.80;;;2.88;;
18568;SDS011;14780;48.316;-1.050;2023-12-22T02:43:39;4.88;;;2.42;;
18568;SDS011;14780;48.316;-1.050;2023-12-22T02:46:25;5.20;;;2.60;;
18568;SDS011;14780;48.316;-1.050;2023-12-22T02:49:09;5.20;;;2.70;;
18568;SDS011;14780;48.316;-1.050;2023-12-22T02:51:56;5.53;;;2.50;;
18568;SDS011;14780;48.316;-1.050;2023-12-22T02:54:41;6.75;;;2.80;;
18568;SDS011;14780;48.316;-1.050;2023-12-22T02:57:26;4.53;;;2.30;;
18568;SDS011;14780;48.316;-1.050;2023-12-22T03:00:10;6.60;;;2.80;;
18568;SDS011;14780;48.316;-1.050;2023-12-22T03:02:55;5.70;;;2.50;;
18568;SDS011;14780;48.316;-1.050;2023-12-22T03:05:40;4.93;;;2.40;;
18568;SDS011;14780;48.316;-1.050;2023-12-22T03:08:24;4.95;;;2.30;;
18568;SDS011;14780;48.316;-1.050;2023-12-22T03:11:09;4.38;;;2.28;;
18568;SDS011;14780;48.316;-1.050;2023-12-22T03:13:53;5.07;;;2.30;;
18568;SDS011;14780;48.316;-1.050;2023-12-22T03:16:39;5.63;;;2.53;;
18568;SDS011;14780;48.316;-1.050;2023-12-22T03:19:24;5.05;;;2.40;;
18568;SDS011;14780;48.316;-1.050;2023-12-22T03:22:09;3.60;;;2.08;;
18568;SDS011;14780;48.316;-1.050;2023-12-22T03:24:54;3.83;;;2.03;;
18568;SDS011;14780;48.316;-1.050;2023-12-22T03:27:38;6.40;;;2.37;;
18568;SDS011;14780;48.316;-1.050;2023-12-22T03:30:23;4.00;;;2.20;;
18568;SDS011;14780;48.316;-1.050;2023-12-22T03:33:08;4.95;;;2.47;;
18568;SDS011;14780;48.316;-1.050;2023-12-22T03:35:52;5.32;;;2.30;;
18568;SDS011;14780;48.316;-1.050;2023-12-22T03:38:37;4.70;;;2.35;;
18568;SDS011;14780;48.316;-1.050;2023-12-22T03:41:21;3.97;;;2.20;;
18568;SDS011;14780;48.316;-1.050;2023-12-22T03:44:06;3.70;;;2.20;;
18568;SDS011;14780;48.316;-1.050;2023-12-22T03:46:51;3.93;;;2.10;;
18568;SDS011;14780;48.316;-1.050;2023-12-22T03:49:36;3.97;;;2.20;;
18568;SDS011;14780;48.316;-1.050;2023-12-22T03:52:21;5.33;;;2.30;;
18568;SDS011;14780;48.316;-1.050;2023-12-22T03:55:05;5.55;;;2.28;;
18568;SDS011;14780;48.316;-1.050;2023-12-22T03:57:50;5.97;;;2.13;;
18568;SDS011;14780;48.316;-1.050;2023-12-22T04:00:35;6.60;;;2.22;;
18568;SDS011;14780;48.316;-1.050;2023-12-22T04:03:19;4.65;;;2.15;;
18568;SDS011;14780;48.316;-1.050;2023-12-22T04:06:04;4.60;;;2.27;;
18568;SDS011;14780;48.316;-1.050;2023-12-22T04:08:49;4.00;;;1.90;;
18568;SDS011;14780;48.316;-1.050;2023-12-22T04:11:33;4.60;;;1.80;;
18568;SDS011;14780;48.316;-1.050;2023-12-22T04:14:20;4.90;;;2.15;;
18568;SDS011;14780;48.316;-1.050;2023-12-22T04:17:05;4.20;;;2.08;;
18568;SDS011;14780;48.316;-1.050;2023-12-22T04:19:49;4.85;;;1.90;;
18568;SDS011;14780;48.316;-1.050;2023-12-22T04:22:34;4.87;;;2.03;;
18568;SDS011;14780;48.316;-1.050;2023-12-22T04:25:18;3.67;;;1.85;;
18568;SDS011;14780;48.316;-1.050;2023-12-22T04:28:03;4.07;;;2.10;;
18568;SDS011;14780;48.316;-1.050;2023-12-22T04:30:48;4.07;;;1.93;;
18568;SDS011;14780;48.316;-1.050;2023-12-22T04:33:34;4.68;;;2.00;;
18568;SDS011;14780;48.316;-1.050;2023-12-22T04:36:18;2.83;;;1.83;;
18568;SDS011;14780;48.316;-1.050;2023-12-22T04:39:03;3.53;;;1.70;;
18568;SDS011;14780;48.316;-1.050;2023-12-22T04:41:48;4.35;;;1.80;;
18568;SDS011;14780;48.316;-1.050;2023-12-22T04:44:33;3.67;;;1.83;;
18568;SDS011;14780;48.316;-1.050;2023-12-22T04:47:18;2.97;;;1.60;;
18568;SDS011;14780;48.316;-1.050;2023-12-22T04:50:03;2.33;;;1.60;;
18568;SDS011;14780;48.316;-1.050;2023-12-22T04:52:48;2.85;;;1.80;;
18568;SDS011;14780;48.316;-1.050;2023-12-22T04:55:32;4.40;;;1.90;;
18568;SDS011;14780;48.316;-1.050;2023-12-22T04:58:17;2.85;;;1.73;;
18568;SDS011;14780;48.316;-1.050;2023-12-22T05:01:01;3.05;;;1.88;;
18568;SDS011;14780;48.316;-1.050;2023-12-22T05:03:46;2.85;;;1.80;;
18568;SDS011;14780;48.316;-1.050;2023-12-22T05:06:31;3.20;;;1.80;;
18568;SDS011;14780;48.316;-1.050;2023-12-22T05:09:15;2.90;;;1.57;;
18568;SDS011;14780;48.316;-1.050;2023-12-22T05:12:00;3.13;;;1.80;;
18568;SDS011;14780;48.316;-1.050;2023-12-22T05:14:45;4.05;;;1.83;;
18568;SDS011;14780;48.316;-1.050;2023-12-22T05:17:30;3.08;;;1.48;;
18568;SDS011;14780;48.316;-1.050;2023-12-22T05:20:16;3.15;;;1.70;;
18568;SDS011;14780;48.316;-1.050;2023-12-22T05:23:01;4.75;;;1.85;;
18568;SDS011;14780;48.316;-1.050;2023-12-22T05:25:46;4.03;;;1.60;;
18568;SDS011;14780;48.316;-1.050;2023-12-22T05:28:30;2.75;;;1.48;;
18568;SDS011;14780;48.316;-1.050;2023-12-22T05:31:16;3.50;;;1.77;;
18568;SDS011;14780;48.316;-1.050;2023-12-22T05:34:02;4.72;;;1.90;;
18568;SDS011;14780;48.316;-1.050;2023-12-22T05:36:47;3.00;;;1.60;;
18568;SDS011;14780;48.316;-1.050;2023-12-22T05:39:32;2.22;;;1.35;;
18568;SDS011;14780;48.316;-1.050;2023-12-22T05:42:16;3.67;;;1.50;;
18568;SDS011;14780;48.316;-1.050;2023-12-22T05:45:01;2.77;;;1.67;;
18568;SDS011;14780;48.316;-1.050;2023-12-22T05:47:46;3.72;;;1.73;;
18568;SDS011;14780;48.316;-1.050;2023-12-22T05:50:30;2.70;;;1.60;;
18568;SDS011;14780;48.316;-1.050;2023-12-22T05:53:15;3.45;;;1.58;;
18568;SDS011;14780;48.316;-1.050;2023-12-22T05:55:59;2.65;;;1.40;;
18568;SDS011;14780;48.316;-1.050;2023-12-22T05:58:44;2.90;;;1.45;;
18568;SDS011;14780;48.316;-1.050;2023-12-22T06:01:29;2.42;;;1.42;;
18568;SDS011;14780;48.316;-1.050;2023-12-22T06:04:14;2.78;;;1.42;;
18568;SDS011;14780;48.316;-1.050;2023-12-22T06:06:58;4.05;;;1.70;;
18568;SDS011;14780;48.316;-1.050;2023-12-22T06:09:43;3.22;;;1.60;;
18568;SDS011;14780;48.316;-1.050;2023-12-22T06:12:28;2.53;;;1.58;;
18568;SDS011;14780;48.316;-1.050;2023-12-22T06:15:12;1.83;;;1.40;;
18568;SDS011;14780;48.316;-1.050;2023-12-22T06:17:57;3.60;;;1.67;;
18568;SDS011;14780;48.316;-1.050;2023-12-22T06:20:41;2.33;;;1.50;;
18568;SDS011;14780;48.316;-1.050;2023-12-22T06:23:26;2.85;;;1.70;;
18568;SDS011;14780;48.316;-1.050;2023-12-22T06:26:11;3.55;;;1.77;;
18568;SDS011;14780;48.316;-1.050;2023-12-22T06:28:56;2.67;;;1.40;;
18568;SDS011;14780;48.316;-1.050;2023-12-22T06:31:41;2.53;;;1.60;;
18568;SDS011;14780;48.316;-1.050;2023-12-22T06:34:25;1.98;;;1.50;;
18568;SDS011;14780;48.316;-1.050;2023-12-22T06:37:10;2.20;;;1.50;;
18568;SDS011;14780;48.316;-1.050;2023-12-22T06:39:55;1.80;;;1.48;;
18568;SDS011;14780;48.316;-1.050;2023-12-22T06:42:40;3.17;;;1.48;;
18568;SDS011;14780;48.316;-1.050;2023-12-22T06:45:24;2.87;;;1.40;;
18568;SDS011;14780;48.316;-1.050;2023-12-22T06:48:09;2.28;;;1.38;;
18568;SDS011;14780;48.316;-1.050;2023-12-22T06:50:54;2.95;;;1.50;;
18568;SDS011;14780;48.316;-1.050;2023-12-22T06:53:39;3.58;;;1.60;;
18568;SDS011;14780;48.316;-1.050;2023-12-22T06:56:24;4.00;;;1.80;;
18568;SDS011;14780;48.316;-1.050;2023-12-22T06:59:10;3.85;;;1.52;;
18568;SDS011;14780;48.316;-1.050;2023-12-22T07:01:55;3.15;;;1.67;;
18568;SDS011;14780;48.316;-1.050;2023-12-22T07:08:04;3.67;;;1.40;;
18568;SDS011;14780;48.316;-1.050;2023-12-22T07:10:49;4.13;;;1.45;;
18568;SDS011;14780;48.316;-1.050;2023-12-22T07:13:34;2.70;;;1.30;;
18568;SDS011;14780;48.316;-1.050;2023-12-22T07:16:19;2.95;;;1.65;;
18568;SDS011;14780;48.316;-1.050;2023-12-22T07:19:04;2.27;;;1.40;;
18568;SDS011;14780;48.316;-1.050;2023-12-22T07:21:49;2.28;;;1.33;;
18568;SDS011;14780;48.316;-1.050;2023-12-22T07:24:33;3.50;;;1.53;;
18568;SDS011;14780;48.316;-1.050;2023-12-22T07:27:18;3.67;;;1.58;;
18568;SDS011;14780;48.316;-1.050;2023-12-22T07:30:03;3.92;;;1.33;;
18568;SDS011;14780;48.316;-1.050;2023-12-22T07:32:48;3.17;;;1.52;;
18568;SDS011;14780;48.316;-1.050;2023-12-22T07:35:35;3.10;;;1.40;;
18568;SDS011;14780;48.316;-1.050;2023-12-22T07:38:20;2.50;;;1.40;;
18568;SDS011;14780;48.316;-1.050;2023-12-22T07:41:05;3.05;;;1.65;;
18568;SDS011;14780;48.316;-1.050;2023-12-22T07:43:49;3.23;;;1.60;;
18568;SDS011;14780;48.316;-1.050;2023-12-22T07:46:34;4.28;;;2.00;;
18568;SDS011;14780;48.316;-1.050;2023-12-22T07:49:18;4.35;;;1.58;;
18568;SDS011;14780;48.316;-1.050;2023-12-22T07:52:04;5.13;;;1.73;;
18568;SDS011;14780;48.316;-1.050;2023-12-22T07:54:49;4.43;;;1.58;;
18568;SDS011;14780;48.316;-1.050;2023-12-22T07:57:35;5.30;;;2.05;;
18568;SDS011;14780;48.316;-1.050;2023-12-22T08:00:22;4.60;;;1.90;;
18568;SDS011;14780;48.316;-1.050;2023-12-22T08:03:07;5.03;;;1.92;;
18568;SDS011;14780;48.316;-1.050;2023-12-22T08:05:53;4.30;;;1.93;;
18568;SDS011;14780;48.316;-1.050;2023-12-22T08:08:39;3.83;;;2.00;;
18568;SDS011;14780;48.316;-1.050;2023-12-22T08:11:24;4.30;;;1.83;;
18568;SDS011;14780;48.316;-1.050;2023-12-22T08:14:09;6.93;;;2.13;;
18568;SDS011;14780;48.316;-1.050;2023-12-22T08:16:53;4.28;;;2.03;;
18568;SDS011;14780;48.316;-1.050;2023-12-22T08:19:38;6.75;;;2.20;;
18568;SDS011;14780;48.316;-1.050;2023-12-22T08:22:26;5.97;;;1.90;;
18568;SDS011;14780;48.316;-1.050;2023-12-22T08:25:11;4.35;;;1.77;;
18568;SDS011;14780;48.316;-1.050;2023-12-22T08:27:55;5.40;;;1.80;;
18568;SDS011;14780;48.316;-1.050;2023-12-22T08:30:41;4.13;;;2.10;;
18568;SDS011;14780;48.316;-1.050;2023-12-22T08:33:26;6.47;;;2.00;;
18568;SDS011;14780;48.316;-1.050;2023-12-22T08:36:11;4.22;;;1.98;;
18568;SDS011;14780;48.316;-1.050;2023-12-22T08:38:55;6.80;;;2.30;;
18568;SDS011;14780;48.316;-1.050;2023-12-22T08:41:40;5.97;;;2.25;;
18568;SDS011;14780;48.316;-1.050;2023-12-22T08:44:26;7.28;;;1.90;;
18568;SDS011;14780;48.316;-1.050;2023-12-22T08:47:11;3.92;;;2.00;;
18568;SDS011;14780;48.316;-1.050;2023-12-22T08:49:55;4.28;;;1.83;;
18568;SDS011;14780;48.316;-1.050;2023-12-22T08:52:40;6.70;;;2.22;;
18568;SDS011;14780;48.316;-1.050;2023-12-22T08:55:25;5.97;;;2.20;;
18568;SDS011;14780;48.316;-1.050;2023-12-22T08:58:09;3.65;;;2.00;;
18568;SDS011;14780;48.316;-1.050;2023-12-22T09:00:54;3.90;;;1.75;;
18568;SDS011;14780;48.316;-1.050;2023-12-22T09:03:39;3.40;;;1.55;;
18568;SDS011;14780;48.316;-1.050;2023-12-22T09:06:28;3.05;;;1.83;;
18568;SDS011;14780;48.316;-1.050;2023-12-22T09:09:12;3.65;;;1.80;;
18568;SDS011;14780;48.316;-1.050;2023-12-22T09:11:57;4.32;;;1.90;;
18568;SDS011;14780;48.316;-1.050;2023-12-22T09:14:42;6.45;;;2.00;;
18568;SDS011;14780;48.316;-1.050;2023-12-22T09:17:27;4.28;;;2.08;;
18568;SDS011;14780;48.316;-1.050;2023-12-22T09:20:12;4.50;;;2.27;;
18568;SDS011;14780;48.316;-1.050;2023-12-22T09:22:57;2.83;;;1.80;;
18568;SDS011;14780;48.316;-1.050;2023-12-22T09:25:42;4.10;;;1.92;;
18568;SDS011;14780;48.316;-1.050;2023-12-22T09:28:27;4.38;;;1.88;;
18568;SDS011;14780;48.316;-1.050;2023-12-22T09:31:11;4.28;;;1.83;;
18568;SDS011;14780;48.316;-1.050;2023-12-22T09:33:56;2.80;;;1.80;;
18568;SDS011;14780;48.316;-1.050;2023-12-22T09:36:41;2.22;;;1.52;;
18568;SDS011;14780;48.316;-1.050;2023-12-22T09:39:26;4.00;;;1.90;;
18568;SDS011;14780;48.316;-1.050;2023-12-22T09:42:12;5.35;;;2.22;;
18568;SDS011;14780;48.316;-1.050;2023-12-22T09:44:58;3.95;;;2.00;;
18568;SDS011;14780;48.316;-1.050;2023-12-22T09:47:47;4.70;;;2.05;;
18568;SDS011;14780;48.316;-1.050;2023-12-22T09:50:34;5.75;;;2.38;;
18568;SDS011;14780;48.316;-1.050;2023-12-22T09:53:20;4.55;;;2.13;;
18568;SDS011;14780;48.316;-1.050;2023-12-22T09:56:05;6.22;;;2.08;;
18568;SDS011;14780;48.316;-1.050;2023-12-22T09:58:51;5.70;;;2.20;;
18568;SDS011;14780;48.316;-1.050;2023-12-22T10:01:42;6.25;;;2.17;;
18568;SDS011;14780;48.316;-1.050;2023-12-22T10:04:31;8.05;;;2.20;;
18568;SDS011;14780;48.316;-1.050;2023-12-22T10:07:16;7.30;;;2.60;;
18568;SDS011;14780;48.316;-1.050;2023-12-22T10:10:02;5.25;;;2.22;;
18568;SDS011;14780;48.316;-1.050;2023-12-22T10:12:51;6.07;;;2.40;;
18568;SDS011;14780;48.316;-1.050;2023-12-22T10:15:40;5.55;;;2.00;;
18568;SDS011;14780;48.316;-1.050;2023-12-22T10:18:25;5.35;;;2.30;;
18568;SDS011;14780;48.316;-1.050;2023-12-22T10:21:10;6.70;;;2.58;;
18568;SDS011;14780;48.316;-1.050;2023-12-22T10:23:55;7.25;;;2.17;;
18568;SDS011;14780;48.316;-1.050;2023-12-22T10:26:40;5.75;;;2.45;;
18568;SDS011;14780;48.316;-1.050;2023-12-22T10:29:25;6.22;;;2.60;;
18568;SDS011;14780;48.316;-1.050;2023-12-22T10:32:09;7.28;;;2.58;;
18568;SDS011;14780;48.316;-1.050;2023-12-22T10:34:55;9.65;;;3.15;;
18568;SDS011;14780;48.316;-1.050;2023-12-22T10:37:43;7.97;;;2.90;;
18568;SDS011;14780;48.316;-1.050;2023-12-22T10:40:30;4.78;;;2.30;;
18568;SDS011;14780;48.316;-1.050;2023-12-22T10:43:15;7.43;;;2.75;;
18568;SDS011;14780;48.316;-1.050;2023-12-22T10:46:00;9.23;;;2.83;;
18568;SDS011;14780;48.316;-1.050;2023-12-22T10:48:45;7.65;;;2.97;;
18568;SDS011;14780;48.316;-1.050;2023-12-22T10:51:30;7.15;;;2.90;;
18568;SDS011;14780;48.316;-1.050;2023-12-22T10:54:16;8.47;;;3.13;;
18568;SDS011;14780;48.316;-1.050;2023-12-22T10:57:03;9.57;;;3.40;;
18568;SDS011;14780;48.316;-1.050;2023-12-22T10:59:48;10.23;;;3.25;;
18568;SDS011;14780;48.316;-1.050;2023-12-22T11:02:34;8.25;;;3.15;;
18568;SDS011;14780;48.316;-1.050;2023-12-22T11:05:23;10.10;;;3.50;;
18568;SDS011;14780;48.316;-1.050;2023-12-22T11:08:10;10.07;;;3.30;;
18568;SDS011;14780;48.316;-1.050;2023-12-22T11:10:57;8.00;;;3.07;;
18568;SDS011;14780;48.316;-1.050;2023-12-22T11:13:47;7.63;;;3.08;;
18568;SDS011;14780;48.316;-1.050;2023-12-22T11:16:34;7.07;;;2.90;;
18568;SDS011;14780;48.316;-1.050;2023-12-22T11:19:20;6.90;;;3.10;;
18568;SDS011;14780;48.316;-1.050;2023-12-22T11:22:06;8.68;;;3.38;;
18568;SDS011;14780;48.316;-1.050;2023-12-22T11:24:55;10.30;;;3.25;;
18568;SDS011;14780;48.316;-1.050;2023-12-22T11:27:41;8.53;;;3.23;;
18568;SDS011;14780;48.316;-1.050;2023-12-22T11:30:28;9.88;;;3.35;;
18568;SDS011;14780;48.316;-1.050;2023-12-22T11:33:14;8.48;;;2.95;;
18568;SDS011;14780;48.316;-1.050;2023-12-22T11:36:00;7.65;;;3.40;;
18568;SDS011;14780;48.316;-1.050;2023-12-22T11:38:46;9.75;;;3.25;;
18568;SDS011;14780;48.316;-1.050;2023-12-22T11:41:32;7.00;;;3.00;;
18568;SDS011;14780;48.316;-1.050;2023-12-22T11:44:20;8.13;;;3.20;;
18568;SDS011;14780;48.316;-1.050;2023-12-22T11:47:06;7.90;;;3.15;;
18568;SDS011;14780;48.316;-1.050;2023-12-22T11:49:53;9.40;;;3.38;;
18568;SDS011;14780;48.316;-1.050;2023-12-22T11:52:39;9.38;;;3.08;;
18568;SDS011;14780;48.316;-1.050;2023-12-22T11:58:53;9.83;;;3.53;;
18568;SDS011;14780;48.316;-1.050;2023-12-22T12:01:41;6.65;;;3.00;;
18568;SDS011;14780;48.316;-1.050;2023-12-22T12:04:26;6.32;;;3.40;;
18568;SDS011;14780;48.316;-1.050;2023-12-22T12:13:16;11.25;;;3.63;;
18568;SDS011;14780;48.316;-1.050;2023-12-22T12:16:08;9.75;;;3.30;;
18568;SDS011;14780;48.316;-1.050;2023-12-22T12:18:53;8.07;;;3.30;;
18568;SDS011;14780;48.316;-1.050;2023-12-22T12:21:39;9.05;;;3.38;;
18568;SDS011;14780;48.316;-1.050;2023-12-22T12:24:25;7.95;;;3.10;;
18568;SDS011;14780;48.316;-1.050;2023-12-22T12:27:10;7.40;;;3.20;;
18568;SDS011;14780;48.316;-1.050;2023-12-22T12:30:05;10.77;;;3.70;;
18568;SDS011;14780;48.316;-1.050;2023-12-22T12:32:54;7.60;;;3.10;;
18568;SDS011;14780;48.316;-1.050;2023-12-22T12:35:46;8.13;;;3.38;;
18568;SDS011;14780;48.316;-1.050;2023-12-22T12:41:40;9.35;;;3.65;;
18568;SDS011;14780;48.316;-1.050;2023-12-22T12:44:29;9.82;;;3.90;;
18568;SDS011;14780;48.316;-1.050;2023-12-22T12:47:18;9.90;;;3.63;;
18568;SDS011;14780;48.316;-1.050;2023-12-22T12:50:03;8.90;;;3.80;;
18568;SDS011;14780;48.316;-1.050;2023-12-22T12:52:49;10.70;;;3.70;;
18568;SDS011;14780;48.316;-1.050;2023-12-22T12:55:35;11.00;;;3.92;;
18568;SDS011;14780;48.316;-1.050;2023-12-22T12:58:20;11.52;;;3.35;;
18568;SDS011;14780;48.316;-1.050;2023-12-22T13:01:10;11.95;;;3.88;;
18568;SDS011;14780;48.316;-1.050;2023-12-22T13:03:55;9.50;;;4.07;;
18568;SDS011;14780;48.316;-1.050;2023-12-22T13:06:46;10.30;;;3.65;;
18568;SDS011;14780;48.316;-1.050;2023-12-22T13:09:32;8.98;;;3.40;;
18568;SDS011;14780;48.316;-1.050;2023-12-22T13:12:20;9.23;;;3.33;;
18568;SDS011;14780;48.316;-1.050;2023-12-22T13:15:05;10.95;;;3.33;;
18568;SDS011;14780;48.316;-1.050;2023-12-22T13:17:50;8.40;;;3.33;;
18568;SDS011;14780;48.316;-1.050;2023-12-22T13:20:35;8.38;;;3.83;;
18568;SDS011;14780;48.316;-1.050;2023-12-22T13:23:20;12.75;;;3.47;;
18568;SDS011;14780;48.316;-1.050;2023-12-22T13:26:04;5.93;;;3.08;;
18568;SDS011;14780;48.316;-1.050;2023-12-22T13:28:49;11.95;;;3.20;;
18568;SDS011;14780;48.316;-1.050;2023-12-22T13:31:43;9.10;;;3.33;;
18568;SDS011;14780;48.316;-1.050;2023-12-22T13:34:28;5.93;;;2.53;;
18568;SDS011;14780;48.316;-1.050;2023-12-22T13:37:13;8.82;;;3.28;;
18568;SDS011;14780;48.316;-1.050;2023-12-22T13:39:58;11.43;;;3.13;;
18568;SDS011;14780;48.316;-1.050;2023-12-22T13:42:43;9.23;;;3.40;;
18568;SDS011;14780;48.316;-1.050;2023-12-22T13:45:28;8.10;;;3.13;;
18568;SDS011;14780;48.316;-1.050;2023-12-22T13:48:15;6.32;;;3.00;;
18568;SDS011;14780;48.316;-1.050;2023-12-22T13:51:01;10.85;;;3.50;;
18568;SDS011;14780;48.316;-1.050;2023-12-22T13:53:47;8.98;;;4.00;;
18568;SDS011;14780;48.316;-1.050;2023-12-22T13:56:36;10.03;;;3.50;;
18568;SDS011;14780;48.316;-1.050;2023-12-22T13:59:33;9.25;;;3.63;;
18568;SDS011;14780;48.316;-1.050;2023-12-22T14:02:21;11.05;;;3.17;;
18568;SDS011;14780;48.316;-1.050;2023-12-22T14:05:06;9.90;;;3.55;;
18568;SDS011;14780;48.316;-1.050;2023-12-22T14:07:52;12.57;;;3.63;;
18568;SDS011;14780;48.316;-1.050;2023-12-22T14:10:37;8.53;;;3.50;;
18568;SDS011;14780;48.316;-1.050;2023-12-22T14:13:27;8.80;;;3.40;;
18568;SDS011;14780;48.316;-1.050;2023-12-22T14:16:12;12.32;;;3.70;;
18568;SDS011;14780;48.316;-1.050;2023-12-22T14:18:58;9.75;;;3.47;;
18568;SDS011;14780;48.316;-1.050;2023-12-22T14:21:42;9.93;;;3.58;;
18568;SDS011;14780;48.316;-1.050;2023-12-22T14:24:27;10.70;;;4.20;;
18568;SDS011;14780;48.316;-1.050;2023-12-22T14:27:12;11.23;;;3.70;;
18568;SDS011;14780;48.316;-1.050;2023-12-22T14:29:56;10.88;;;3.78;;
18568;SDS011;14780;48.316;-1.050;2023-12-22T14:32:41;8.68;;;3.25;;
18568;SDS011;14780;48.316;-1.050;2023-12-22T14:35:26;11.15;;;3.67;;
18568;SDS011;14780;48.316;-1.050;2023-12-22T14:38:10;10.43;;;3.67;;
18568;SDS011;14780;48.316;-1.050;2023-12-22T14:40:55;11.57;;;3.42;;
18568;SDS011;14780;48.316;-1.050;2023-12-22T14:43:39;12.13;;;3.65;;
18568;SDS011;14780;48.316;-1.050;2023-12-22T14:46:24;12.20;;;4.05;;
18568;SDS011;14780;48.316;-1.050;2023-12-22T14:49:08;11.88;;;4.00;;
18568;SDS011;14780;48.316;-1.050;2023-12-22T14:51:53;9.87;;;3.43;;
18568;SDS011;14780;48.316;-1.050;2023-12-22T14:54:40;8.73;;;3.25;;
18568;SDS011;14780;48.316;-1.050;2023-12-22T14:57:25;8.55;;;3.35;;
18568;SDS011;14780;48.316;-1.050;2023-12-22T15:00:12;9.13;;;3.58;;
18568;SDS011;14780;48.316;-1.050;2023-12-22T15:02:57;8.82;;;3.40;;
18568;SDS011;14780;48.316;-1.050;2023-12-22T15:05:42;12.38;;;3.53;;
18568;SDS011;14780;48.316;-1.050;2023-12-22T15:08:27;9.48;;;3.80;;
18568;SDS011;14780;48.316;-1.050;2023-12-22T15:11:12;11.23;;;3.83;;
18568;SDS011;14780;48.316;-1.050;2023-12-22T15:13:57;10.60;;;3.50;;
18568;SDS011;14780;48.316;-1.050;2023-12-22T15:16:43;8.93;;;3.85;;
18568;SDS011;14780;48.316;-1.050;2023-12-22T15:19:28;9.45;;;3.40;;
18568;SDS011;14780;48.316;-1.050;2023-12-22T15:22:13;6.40;;;3.38;;
18568;SDS011;14780;48.316;-1.050;2023-12-22T15:24:58;10.20;;;3.15;;
18568;SDS011;14780;48.316;-1.050;2023-12-22T15:27:42;11.23;;;3.85;;
18568;SDS011;14780;48.316;-1.050;2023-12-22T15:30:27;10.75;;;4.00;;
18568;SDS011;14780;48.316;-1.050;2023-12-22T15:33:11;9.63;;;3.38;;
18568;SDS011;14780;48.316;-1.050;2023-12-22T15:35:56;7.55;;;3.30;;
18568;SDS011;14780;48.316;-1.050;2023-12-22T15:38:41;10.48;;;3.80;;
18568;SDS011;14780;48.316;-1.050;2023-12-22T15:41:29;9.68;;;3.85;;
18568;SDS011;14780;48.316;-1.050;2023-12-22T15:44:14;8.80;;;3.35;;
18568;SDS011;14780;48.316;-1.050;2023-12-22T15:46:59;10.67;;;3.47;;
18568;SDS011;14780;48.316;-1.050;2023-12-22T15:49:43;10.27;;;3.75;;
18568;SDS011;14780;48.316;-1.050;2023-12-22T15:52:28;10.07;;;3.83;;
18568;SDS011;14780;48.316;-1.050;2023-12-22T15:55:15;8.07;;;3.20;;
18568;SDS011;14780;48.316;-1.050;2023-12-22T15:58:00;8.18;;;3.47;;
18568;SDS011;14780;48.316;-1.050;2023-12-22T16:00:44;9.10;;;3.70;;
18568;SDS011;14780;48.316;-1.050;2023-12-22T16:03:29;10.13;;;3.55;;
18568;SDS011;14780;48.316;-1.050;2023-12-22T16:06:14;8.88;;;3.22;;
18568;SDS011;14780;48.316;-1.050;2023-12-22T16:08:59;8.53;;;3.00;;
18568;SDS011;14780;48.316;-1.050;2023-12-22T16:11:44;9.27;;;3.50;;
18568;SDS011;14780;48.316;-1.050;2023-12-22T16:14:32;9.70;;;3.03;;
18568;SDS011;14780;48.316;-1.050;2023-12-22T16:17:18;9.45;;;3.45;;
18568;SDS011;14780;48.316;-1.050;2023-12-22T16:20:03;7.43;;;3.15;;
18568;SDS011;14780;48.316;-1.050;2023-12-22T16:22:49;8.45;;;3.22;;
18568;SDS011;14780;48.316;-1.050;2023-12-22T16:25:34;8.13;;;2.92;;
18568;SDS011;14780;48.316;-1.050;2023-12-22T16:28:18;8.40;;;3.22;;
18568;SDS011;14780;48.316;-1.050;2023-12-22T16:31:04;5.95;;;2.97;;
18568;SDS011;14780;48.316;-1.050;2023-12-22T16:33:48;8.23;;;2.75;;
18568;SDS011;14780;48.316;-1.050;2023-12-22T16:36:33;9.00;;;3.13;;